sensor_id;sensor_type;location;lat;lon;timestamp;temperature;humidity
33139;DHT22;19501;50.948;5.316;2023-07-13T00:01:16;16.70;99.90
33139;DHT22;19501;50.948;5.316;2023-07-13T00:03:42;16.70;99.90
33139;DHT22;19501;50.948;5.316;2023-07-13T00:06:08;16.60;99.90
33139;DHT22;19501;50.948;5.316;2023-07-13T00:08:34;16.50;99.90
33139;DHT22;19501;50.948;5.316;2023-07-13T00:11:02;16.50;99.90
33139;DHT22;19501;50.948;5.316;2023-07-13T00:13:29;16.50;99.90
33139;DHT22;19501;50.948;5.316;2023-07-13T00:15:55;16.40;99.90
33139;DHT22;19501;50.948;5.316;2023-07-13T00:18:21;16.40;99.90
33139;DHT22;19501;50.948;5.316;2023-07-13T00:20:47;16.30;99.90
33139;DHT22;19501;50.948;5.316;2023-07-13T00:23:14;16.20;99.90
33139;DHT22;19501;50.948;5.316;2023-07-13T00:25:40;16.10;99.90
33139;DHT22;19501;50.948;5.316;2023-07-13T00:28:08;16.10;99.90
33139;DHT22;19501;50.948;5.316;2023-07-13T00:30:33;16.10;99.90
33139;DHT22;19501;50.948;5.316;2023-07-13T00:33:01;16.10;99.90
33139;DHT22;19501;50.948;5.316;2023-07-13T00:35:29;16.00;99.90
33139;DHT22;19501;50.948;5.316;2023-07-13T00:37:55;16.00;99.90
33139;DHT22;19501;50.948;5.316;2023-07-13T00:40:21;16.00;99.90
33139;DHT22;19501;50.948;5.316;2023-07-13T00:42:47;15.90;99.90
33139;DHT22;19501;50.948;5.316;2023-07-13T00:47:39;15.90;99.90
33139;DHT22;19501;50.948;5.316;2023-07-13T00:50:10;15.90;99.90
33139;DHT22;19501;50.948;5.316;2023-07-13T00:52:41;15.90;99.90
33139;DHT22;19501;50.948;5.316;2023-07-13T00:55:09;16.00;99.90
33139;DHT22;19501;50.948;5.316;2023-07-13T00:57:36;15.90;99.90
33139;DHT22;19501;50.948;5.316;2023-07-13T01:00:04;15.90;99.90
33139;DHT22;19501;50.948;5.316;2023-07-13T01:02:33;15.90;99.90
33139;DHT22;19501;50.948;5.316;2023-07-13T01:04:59;15.80;99.90
33139;DHT22;19501;50.948;5.316;2023-07-13T01:07:25;15.80;99.90
33139;DHT22;19501;50.948;5.316;2023-07-13T01:09:51;15.70;99.90
33139;DHT22;19501;50.948;5.316;2023-07-13T01:12:16;15.70;99.90
33139;DHT22;19501;50.948;5.316;2023-07-13T01:14:42;15.70;99.90
33139;DHT22;19501;50.948;5.316;2023-07-13T01:17:11;15.70;99.90
33139;DHT22;19501;50.948;5.316;2023-07-13T01:19:43;15.70;99.90
33139;DHT22;19501;50.948;5.316;2023-07-13T01:22:15;15.70;99.90
33139;DHT22;19501;50.948;5.316;2023-07-13T01:24:43;15.70;99.90
33139;DHT22;19501;50.948;5.316;2023-07-13T01:27:11;15.70;99.90
33139;DHT22;19501;50.948;5.316;2023-07-13T01:29:38;15.70;99.90
33139;DHT22;19501;50.948;5.316;2023-07-13T01:32:17;15.60;99.90
33139;DHT22;19501;50.948;5.316;2023-07-13T01:34:48;15.60;99.90
33139;DHT22;19501;50.948;5.316;2023-07-13T01:37:14;15.60;99.90
33139;DHT22;19501;50.948;5.316;2023-07-13T01:39:40;15.60;99.90
33139;DHT22;19501;50.948;5.316;2023-07-13T01:42:06;15.60;99.90
33139;DHT22;19501;50.948;5.316;2023-07-13T01:44:32;15.60;99.90
33139;DHT22;19501;50.948;5.316;2023-07-13T01:46:58;15.60;99.90
33139;DHT22;19501;50.948;5.316;2023-07-13T01:49:24;15.60;99.90
33139;DHT22;19501;50.948;5.316;2023-07-13T01:51:50;15.60;99.90
33139;DHT22;19501;50.948;5.316;2023-07-13T01:54:15;15.60;99.90
33139;DHT22;19501;50.948;5.316;2023-07-13T01:56:41;15.50;99.90
33139;DHT22;19501;50.948;5.316;2023-07-13T01:59:08;15.50;99.90
33139;DHT22;19501;50.948;5.316;2023-07-13T02:01:34;15.50;99.90
33139;DHT22;19501;50.948;5.316;2023-07-13T02:03:59;15.50;99.90
33139;DHT22;19501;50.948;5.316;2023-07-13T02:06:25;15.60;99.90
33139;DHT22;19501;50.948;5.316;2023-07-13T02:08:51;15.60;99.90
33139;DHT22;19501;50.948;5.316;2023-07-13T02:11:17;15.50;99.90
33139;DHT22;19501;50.948;5.316;2023-07-13T02:13:42;15.40;99.90
33139;DHT22;19501;50.948;5.316;2023-07-13T02:16:08;15.50;99.90
33139;DHT22;19501;50.948;5.316;2023-07-13T02:18:34;15.50;99.90
33139;DHT22;19501;50.948;5.316;2023-07-13T02:21:00;15.50;99.90
33139;DHT22;19501;50.948;5.316;2023-07-13T02:23:26;15.40;99.90
33139;DHT22;19501;50.948;5.316;2023-07-13T02:26:03;15.40;99.90
33139;DHT22;19501;50.948;5.316;2023-07-13T02:28:29;15.30;99.90
33139;DHT22;19501;50.948;5.316;2023-07-13T02:30:54;15.30;99.90
33139;DHT22;19501;50.948;5.316;2023-07-13T02:33:20;15.30;99.90
33139;DHT22;19501;50.948;5.316;2023-07-13T02:35:45;15.30;99.90
33139;DHT22;19501;50.948;5.316;2023-07-13T02:38:13;15.40;99.90
33139;DHT22;19501;50.948;5.316;2023-07-13T02:40:39;15.30;99.90
33139;DHT22;19501;50.948;5.316;2023-07-13T02:43:05;15.30;99.90
33139;DHT22;19501;50.948;5.316;2023-07-13T02:45:30;15.20;99.90
33139;DHT22;19501;50.948;5.316;2023-07-13T02:47:59;15.10;99.90
33139;DHT22;19501;50.948;5.316;2023-07-13T02:50:24;15.00;99.90
33139;DHT22;19501;50.948;5.316;2023-07-13T02:52:50;15.10;99.90
33139;DHT22;19501;50.948;5.316;2023-07-13T02:55:15;15.10;99.90
33139;DHT22;19501;50.948;5.316;2023-07-13T02:57:41;15.10;99.90
33139;DHT22;19501;50.948;5.316;2023-07-13T03:00:07;15.00;99.90
33139;DHT22;19501;50.948;5.316;2023-07-13T03:02:34;15.00;99.90
33139;DHT22;19501;50.948;5.316;2023-07-13T03:05:00;15.00;99.90
33139;DHT22;19501;50.948;5.316;2023-07-13T03:07:26;14.90;99.90
33139;DHT22;19501;50.948;5.316;2023-07-13T03:09:58;14.90;99.90
33139;DHT22;19501;50.948;5.316;2023-07-13T03:12:24;15.00;99.90
33139;DHT22;19501;50.948;5.316;2023-07-13T03:14:50;15.00;99.90
33139;DHT22;19501;50.948;5.316;2023-07-13T03:17:16;15.10;99.90
33139;DHT22;19501;50.948;5.316;2023-07-13T03:19:42;15.00;99.90
33139;DHT22;19501;50.948;5.316;2023-07-13T03:22:09;14.90;99.90
33139;DHT22;19501;50.948;5.316;2023-07-13T03:24:35;14.90;99.90
33139;DHT22;19501;50.948;5.316;2023-07-13T03:27:05;14.90;99.90
33139;DHT22;19501;50.948;5.316;2023-07-13T03:29:31;14.90;99.90
33139;DHT22;19501;50.948;5.316;2023-07-13T03:31:57;14.90;99.90
33139;DHT22;19501;50.948;5.316;2023-07-13T03:34:22;14.80;99.90
33139;DHT22;19501;50.948;5.316;2023-07-13T03:36:48;14.70;99.90
33139;DHT22;19501;50.948;5.316;2023-07-13T03:39:14;14.80;99.90
33139;DHT22;19501;50.948;5.316;2023-07-13T03:41:39;14.90;99.90
33139;DHT22;19501;50.948;5.316;2023-07-13T03:44:05;14.80;99.90
33139;DHT22;19501;50.948;5.316;2023-07-13T03:46:32;14.80;99.90
33139;DHT22;19501;50.948;5.316;2023-07-13T03:48:58;14.80;99.90
33139;DHT22;19501;50.948;5.316;2023-07-13T03:51:24;14.80;99.90
33139;DHT22;19501;50.948;5.316;2023-07-13T03:53:50;14.90;99.90
33139;DHT22;19501;50.948;5.316;2023-07-13T03:56:17;15.00;99.90
33139;DHT22;19501;50.948;5.316;2023-07-13T03:58:47;15.00;99.90
33139;DHT22;19501;50.948;5.316;2023-07-13T04:01:14;15.00;99.90
33139;DHT22;19501;50.948;5.316;2023-07-13T04:03:41;15.20;99.90
33139;DHT22;19501;50.948;5.316;2023-07-13T04:06:18;15.20;99.90
33139;DHT22;19501;50.948;5.316;2023-07-13T04:08:48;15.20;99.90
33139;DHT22;19501;50.948;5.316;2023-07-13T04:11:14;15.20;99.90
33139;DHT22;19501;50.948;5.316;2023-07-13T04:13:40;15.20;99.90
33139;DHT22;19501;50.948;5.316;2023-07-13T04:16:05;15.20;99.90
33139;DHT22;19501;50.948;5.316;2023-07-13T04:18:33;15.20;99.90
33139;DHT22;19501;50.948;5.316;2023-07-13T04:21:01;15.20;99.90
33139;DHT22;19501;50.948;5.316;2023-07-13T04:23:27;15.20;99.90
33139;DHT22;19501;50.948;5.316;2023-07-13T04:25:53;15.20;99.90
33139;DHT22;19501;50.948;5.316;2023-07-13T04:28:23;15.40;99.90
33139;DHT22;19501;50.948;5.316;2023-07-13T04:30:49;15.40;99.90
33139;DHT22;19501;50.948;5.316;2023-07-13T04:33:18;15.50;99.90
33139;DHT22;19501;50.948;5.316;2023-07-13T04:35:48;15.60;99.90
33139;DHT22;19501;50.948;5.316;2023-07-13T04:38:14;15.70;99.90
33139;DHT22;19501;50.948;5.316;2023-07-13T04:40:44;15.70;99.90
33139;DHT22;19501;50.948;5.316;2023-07-13T04:43:10;15.80;99.90
33139;DHT22;19501;50.948;5.316;2023-07-13T04:45:36;15.80;99.90
33139;DHT22;19501;50.948;5.316;2023-07-13T04:48:02;15.80;99.90
33139;DHT22;19501;50.948;5.316;2023-07-13T04:50:28;15.80;99.90
33139;DHT22;19501;50.948;5.316;2023-07-13T04:52:53;15.70;99.90
33139;DHT22;19501;50.948;5.316;2023-07-13T04:55:20;15.70;99.90
33139;DHT22;19501;50.948;5.316;2023-07-13T04:57:45;15.70;99.90
33139;DHT22;19501;50.948;5.316;2023-07-13T05:00:12;15.70;99.90
33139;DHT22;19501;50.948;5.316;2023-07-13T05:02:39;15.70;99.90
33139;DHT22;19501;50.948;5.316;2023-07-13T05:05:05;15.90;99.90
33139;DHT22;19501;50.948;5.316;2023-07-13T05:07:31;16.00;99.90
33139;DHT22;19501;50.948;5.316;2023-07-13T05:09:59;15.90;99.90
33139;DHT22;19501;50.948;5.316;2023-07-13T05:12:25;15.80;99.90
33139;DHT22;19501;50.948;5.316;2023-07-13T05:14:51;15.80;99.90
33139;DHT22;19501;50.948;5.316;2023-07-13T05:17:16;15.80;99.90
33139;DHT22;19501;50.948;5.316;2023-07-13T05:19:42;15.80;99.90
33139;DHT22;19501;50.948;5.316;2023-07-13T05:22:08;16.00;99.90
33139;DHT22;19501;50.948;5.316;2023-07-13T05:24:34;16.00;99.90
33139;DHT22;19501;50.948;5.316;2023-07-13T05:26:59;16.00;99.90
33139;DHT22;19501;50.948;5.316;2023-07-13T05:29:25;16.10;99.90
33139;DHT22;19501;50.948;5.316;2023-07-13T05:31:51;16.30;99.90
33139;DHT22;19501;50.948;5.316;2023-07-13T05:34:17;16.30;99.90
33139;DHT22;19501;50.948;5.316;2023-07-13T05:36:42;16.20;99.90
33139;DHT22;19501;50.948;5.316;2023-07-13T05:39:08;16.20;99.90
33139;DHT22;19501;50.948;5.316;2023-07-13T05:41:38;16.20;99.90
33139;DHT22;19501;50.948;5.316;2023-07-13T05:44:03;16.20;99.90
33139;DHT22;19501;50.948;5.316;2023-07-13T05:46:29;16.30;99.90
33139;DHT22;19501;50.948;5.316;2023-07-13T05:48:55;16.20;99.90
33139;DHT22;19501;50.948;5.316;2023-07-13T05:51:20;16.30;99.90
33139;DHT22;19501;50.948;5.316;2023-07-13T05:53:46;16.30;99.90
33139;DHT22;19501;50.948;5.316;2023-07-13T05:56:11;16.50;99.90
33139;DHT22;19501;50.948;5.316;2023-07-13T05:58:37;16.40;99.90
33139;DHT22;19501;50.948;5.316;2023-07-13T06:01:06;16.50;99.90
33139;DHT22;19501;50.948;5.316;2023-07-13T06:03:33;16.50;99.90
33139;DHT22;19501;50.948;5.316;2023-07-13T06:05:58;16.50;99.90
33139;DHT22;19501;50.948;5.316;2023-07-13T06:08:28;16.30;99.90
33139;DHT22;19501;50.948;5.316;2023-07-13T06:10:53;16.30;99.90
33139;DHT22;19501;50.948;5.316;2023-07-13T06:13:19;16.40;99.90
33139;DHT22;19501;50.948;5.316;2023-07-13T06:15:53;16.50;99.90
33139;DHT22;19501;50.948;5.316;2023-07-13T06:18:19;16.60;99.90
33139;DHT22;19501;50.948;5.316;2023-07-13T06:20:44;16.60;99.90
33139;DHT22;19501;50.948;5.316;2023-07-13T06:23:10;16.80;99.90
33139;DHT22;19501;50.948;5.316;2023-07-13T06:25:35;16.90;99.90
33139;DHT22;19501;50.948;5.316;2023-07-13T06:28:03;17.00;99.90
33139;DHT22;19501;50.948;5.316;2023-07-13T06:30:29;17.10;99.90
33139;DHT22;19501;50.948;5.316;2023-07-13T06:32:54;17.10;99.90
33139;DHT22;19501;50.948;5.316;2023-07-13T06:35:20;17.20;99.90
33139;DHT22;19501;50.948;5.316;2023-07-13T06:37:46;17.30;99.90
33139;DHT22;19501;50.948;5.316;2023-07-13T06:40:12;17.40;99.90
33139;DHT22;19501;50.948;5.316;2023-07-13T06:42:38;17.50;99.90
33139;DHT22;19501;50.948;5.316;2023-07-13T06:45:04;17.50;99.90
33139;DHT22;19501;50.948;5.316;2023-07-13T06:47:30;17.40;99.90
33139;DHT22;19501;50.948;5.316;2023-07-13T06:49:57;17.40;99.90
33139;DHT22;19501;50.948;5.316;2023-07-13T06:52:22;17.50;99.90
33139;DHT22;19501;50.948;5.316;2023-07-13T06:54:48;17.60;99.90
33139;DHT22;19501;50.948;5.316;2023-07-13T06:57:14;17.60;99.90
33139;DHT22;19501;50.948;5.316;2023-07-13T06:59:39;17.60;99.90
33139;DHT22;19501;50.948;5.316;2023-07-13T07:02:05;17.70;99.90
33139;DHT22;19501;50.948;5.316;2023-07-13T07:04:31;17.70;99.90
33139;DHT22;19501;50.948;5.316;2023-07-13T07:06:56;17.70;99.90
33139;DHT22;19501;50.948;5.316;2023-07-13T07:09:22;17.70;99.90
33139;DHT22;19501;50.948;5.316;2023-07-13T07:11:48;17.80;99.90
33139;DHT22;19501;50.948;5.316;2023-07-13T07:14:13;17.80;99.90
33139;DHT22;19501;50.948;5.316;2023-07-13T07:16:39;17.90;99.90
33139;DHT22;19501;50.948;5.316;2023-07-13T07:19:05;17.90;99.90
33139;DHT22;19501;50.948;5.316;2023-07-13T07:21:30;17.90;99.90
33139;DHT22;19501;50.948;5.316;2023-07-13T07:23:56;17.90;99.90
33139;DHT22;19501;50.948;5.316;2023-07-13T07:26:22;18.00;99.90
33139;DHT22;19501;50.948;5.316;2023-07-13T07:28:48;17.90;99.90
33139;DHT22;19501;50.948;5.316;2023-07-13T07:31:14;18.10;99.90
33139;DHT22;19501;50.948;5.316;2023-07-13T07:33:39;18.30;99.90
33139;DHT22;19501;50.948;5.316;2023-07-13T07:36:05;18.20;99.90
33139;DHT22;19501;50.948;5.316;2023-07-13T07:38:31;18.40;99.90
33139;DHT22;19501;50.948;5.316;2023-07-13T07:40:56;18.40;99.90
33139;DHT22;19501;50.948;5.316;2023-07-13T07:43:22;18.50;99.90
33139;DHT22;19501;50.948;5.316;2023-07-13T07:45:47;18.50;99.90
33139;DHT22;19501;50.948;5.316;2023-07-13T07:48:13;18.50;99.90
33139;DHT22;19501;50.948;5.316;2023-07-13T07:50:39;18.40;99.90
33139;DHT22;19501;50.948;5.316;2023-07-13T07:53:06;18.60;99.90
33139;DHT22;19501;50.948;5.316;2023-07-13T07:55:36;18.70;99.90
33139;DHT22;19501;50.948;5.316;2023-07-13T07:58:01;18.60;99.90
33139;DHT22;19501;50.948;5.316;2023-07-13T08:00:27;18.50;99.90
33139;DHT22;19501;50.948;5.316;2023-07-13T08:02:56;18.30;99.90
33139;DHT22;19501;50.948;5.316;2023-07-13T08:05:22;18.50;99.90
33139;DHT22;19501;50.948;5.316;2023-07-13T08:07:48;18.70;99.90
33139;DHT22;19501;50.948;5.316;2023-07-13T08:10:13;18.80;99.90
33139;DHT22;19501;50.948;5.316;2023-07-13T08:12:40;19.10;99.90
33139;DHT22;19501;50.948;5.316;2023-07-13T08:15:10;19.20;99.90
33139;DHT22;19501;50.948;5.316;2023-07-13T08:17:36;19.20;99.90
33139;DHT22;19501;50.948;5.316;2023-07-13T08:20:02;19.40;99.90
33139;DHT22;19501;50.948;5.316;2023-07-13T08:22:28;19.60;99.90
33139;DHT22;19501;50.948;5.316;2023-07-13T08:24:53;19.70;99.90
33139;DHT22;19501;50.948;5.316;2023-07-13T08:27:23;19.80;99.90
33139;DHT22;19501;50.948;5.316;2023-07-13T08:29:49;19.90;99.90
33139;DHT22;19501;50.948;5.316;2023-07-13T08:32:15;19.90;99.90
33139;DHT22;19501;50.948;5.316;2023-07-13T08:34:41;19.70;99.90
33139;DHT22;19501;50.948;5.316;2023-07-13T08:37:07;19.60;99.90
33139;DHT22;19501;50.948;5.316;2023-07-13T08:39:33;19.60;99.90
33139;DHT22;19501;50.948;5.316;2023-07-13T08:42:06;19.60;99.90
33139;DHT22;19501;50.948;5.316;2023-07-13T08:44:39;19.60;99.90
33139;DHT22;19501;50.948;5.316;2023-07-13T08:47:09;19.80;99.90
33139;DHT22;19501;50.948;5.316;2023-07-13T08:49:36;19.60;99.90
33139;DHT22;19501;50.948;5.316;2023-07-13T08:52:17;19.60;99.90
33139;DHT22;19501;50.948;5.316;2023-07-13T08:54:50;19.60;99.90
33139;DHT22;19501;50.948;5.316;2023-07-13T08:57:20;19.80;99.90
33139;DHT22;19501;50.948;5.316;2023-07-13T08:59:47;19.50;99.90
33139;DHT22;19501;50.948;5.316;2023-07-13T09:02:32;19.50;99.90
33139;DHT22;19501;50.948;5.316;2023-07-13T09:05:25;19.80;99.90
33139;DHT22;19501;50.948;5.316;2023-07-13T09:10:44;19.90;99.90
33139;DHT22;19501;50.948;5.316;2023-07-13T09:15:44;20.10;99.90
33139;DHT22;19501;50.948;5.316;2023-07-13T09:18:21;20.30;99.90
33139;DHT22;19501;50.948;5.316;2023-07-13T09:20:56;20.70;99.90
33139;DHT22;19501;50.948;5.316;2023-07-13T09:23:24;20.80;99.90
33139;DHT22;19501;50.948;5.316;2023-07-13T09:29:03;20.50;99.90
33139;DHT22;19501;50.948;5.316;2023-07-13T09:31:42;20.60;99.90
33139;DHT22;19501;50.948;5.316;2023-07-13T09:34:12;21.00;99.90
33139;DHT22;19501;50.948;5.316;2023-07-13T09:36:39;21.10;99.90
33139;DHT22;19501;50.948;5.316;2023-07-13T09:45:00;20.90;99.90
33139;DHT22;19501;50.948;5.316;2023-07-13T09:47:33;21.00;99.90
33139;DHT22;19501;50.948;5.316;2023-07-13T09:50:06;20.80;99.90
33139;DHT22;19501;50.948;5.316;2023-07-13T09:53:00;20.60;99.90
33139;DHT22;19501;50.948;5.316;2023-07-13T09:55:36;20.90;99.90
33139;DHT22;19501;50.948;5.316;2023-07-13T09:58:24;21.00;99.90
33139;DHT22;19501;50.948;5.316;2023-07-13T10:03:26;21.50;99.90
33139;DHT22;19501;50.948;5.316;2023-07-13T10:05:57;21.50;99.90
33139;DHT22;19501;50.948;5.316;2023-07-13T10:08:29;21.20;99.90
33139;DHT22;19501;50.948;5.316;2023-07-13T10:11:00;21.20;99.90
33139;DHT22;19501;50.948;5.316;2023-07-13T10:13:45;21.00;99.90
33139;DHT22;19501;50.948;5.316;2023-07-13T10:16:11;21.40;99.90
33139;DHT22;19501;50.948;5.316;2023-07-13T10:18:46;21.80;99.90
33139;DHT22;19501;50.948;5.316;2023-07-13T10:21:19;21.50;99.90
33139;DHT22;19501;50.948;5.316;2023-07-13T10:23:58;21.40;99.90
33139;DHT22;19501;50.948;5.316;2023-07-13T10:26:32;21.30;99.90
33139;DHT22;19501;50.948;5.316;2023-07-13T10:29:05;21.30;99.90
33139;DHT22;19501;50.948;5.316;2023-07-13T10:31:34;21.30;99.90
33139;DHT22;19501;50.948;5.316;2023-07-13T10:34:02;21.20;99.90
33139;DHT22;19501;50.948;5.316;2023-07-13T10:36:35;21.20;99.90
33139;DHT22;19501;50.948;5.316;2023-07-13T10:39:05;21.40;99.90
33139;DHT22;19501;50.948;5.316;2023-07-13T10:41:35;21.50;99.90
33139;DHT22;19501;50.948;5.316;2023-07-13T10:44:03;21.80;99.90
33139;DHT22;19501;50.948;5.316;2023-07-13T10:46:30;22.20;99.90
33139;DHT22;19501;50.948;5.316;2023-07-13T10:49:01;22.10;99.90
33139;DHT22;19501;50.948;5.316;2023-07-13T10:51:29;21.90;99.90
33139;DHT22;19501;50.948;5.316;2023-07-13T10:56:38;21.10;99.90
33139;DHT22;19501;50.948;5.316;2023-07-13T10:59:15;20.90;99.90
33139;DHT22;19501;50.948;5.316;2023-07-13T11:02:00;21.40;99.90
33139;DHT22;19501;50.948;5.316;2023-07-13T11:04:45;22.10;99.90
33139;DHT22;19501;50.948;5.316;2023-07-13T11:07:24;22.30;99.90
33139;DHT22;19501;50.948;5.316;2023-07-13T11:10:04;22.50;99.90
33139;DHT22;19501;50.948;5.316;2023-07-13T11:12:52;22.70;99.90
33139;DHT22;19501;50.948;5.316;2023-07-13T11:15:31;22.70;99.90
33139;DHT22;19501;50.948;5.316;2023-07-13T11:18:02;22.50;99.90
33139;DHT22;19501;50.948;5.316;2023-07-13T11:20:34;22.90;99.90
33139;DHT22;19501;50.948;5.316;2023-07-13T11:25:38;23.70;99.90
33139;DHT22;19501;50.948;5.316;2023-07-13T11:30:49;23.20;99.90
33139;DHT22;19501;50.948;5.316;2023-07-13T11:38:30;23.90;99.90
33139;DHT22;19501;50.948;5.316;2023-07-13T11:40:59;24.80;99.90
33139;DHT22;19501;50.948;5.316;2023-07-13T11:43:28;24.50;97.40
33139;DHT22;19501;50.948;5.316;2023-07-13T11:45:54;24.00;99.10
33139;DHT22;19501;50.948;5.316;2023-07-13T11:48:23;24.10;99.80
33139;DHT22;19501;50.948;5.316;2023-07-13T11:51:03;24.20;98.90
33139;DHT22;19501;50.948;5.316;2023-07-13T11:53:43;24.00;98.20
33139;DHT22;19501;50.948;5.316;2023-07-13T11:56:13;23.40;99.90
33139;DHT22;19501;50.948;5.316;2023-07-13T11:58:39;23.20;99.90
33139;DHT22;19501;50.948;5.316;2023-07-13T12:01:05;23.70;99.70
33139;DHT22;19501;50.948;5.316;2023-07-13T12:03:32;23.50;98.30
33139;DHT22;19501;50.948;5.316;2023-07-13T12:06:01;23.50;97.70
33139;DHT22;19501;50.948;5.316;2023-07-13T12:08:28;24.10;97.90
33139;DHT22;19501;50.948;5.316;2023-07-13T12:11:00;23.60;97.70
33139;DHT22;19501;50.948;5.316;2023-07-13T12:13:27;23.30;97.10
33139;DHT22;19501;50.948;5.316;2023-07-13T12:15:54;22.90;97.50
33139;DHT22;19501;50.948;5.316;2023-07-13T12:18:23;23.40;97.80
33139;DHT22;19501;50.948;5.316;2023-07-13T12:20:58;23.70;98.00
33139;DHT22;19501;50.948;5.316;2023-07-13T12:23:31;24.30;97.20
33139;DHT22;19501;50.948;5.316;2023-07-13T12:25:58;25.30;95.90
33139;DHT22;19501;50.948;5.316;2023-07-13T12:28:39;25.10;95.20
33139;DHT22;19501;50.948;5.316;2023-07-13T12:34:14;25.80;95.30
33139;DHT22;19501;50.948;5.316;2023-07-13T12:39:15;26.00;92.90
33139;DHT22;19501;50.948;5.316;2023-07-13T12:41:42;25.40;93.60
33139;DHT22;19501;50.948;5.316;2023-07-13T12:44:15;25.00;94.00
33139;DHT22;19501;50.948;5.316;2023-07-13T12:46:57;24.50;94.50
33139;DHT22;19501;50.948;5.316;2023-07-13T12:49:26;24.10;94.10
33139;DHT22;19501;50.948;5.316;2023-07-13T12:51:57;23.50;95.40
33139;DHT22;19501;50.948;5.316;2023-07-13T12:54:24;23.50;95.20
33139;DHT22;19501;50.948;5.316;2023-07-13T12:56:51;23.80;95.90
33139;DHT22;19501;50.948;5.316;2023-07-13T12:59:21;23.70;94.70
33139;DHT22;19501;50.948;5.316;2023-07-13T13:01:48;23.50;93.60
33139;DHT22;19501;50.948;5.316;2023-07-13T13:04:14;23.30;94.30
33139;DHT22;19501;50.948;5.316;2023-07-13T13:06:41;23.10;93.90
33139;DHT22;19501;50.948;5.316;2023-07-13T13:09:13;22.90;94.20
33139;DHT22;19501;50.948;5.316;2023-07-13T13:11:39;22.70;95.10
33139;DHT22;19501;50.948;5.316;2023-07-13T13:14:06;22.80;94.60
33139;DHT22;19501;50.948;5.316;2023-07-13T13:16:49;22.50;94.80
33139;DHT22;19501;50.948;5.316;2023-07-13T13:19:28;22.50;94.80
33139;DHT22;19501;50.948;5.316;2023-07-13T13:21:55;22.50;95.20
33139;DHT22;19501;50.948;5.316;2023-07-13T13:24:26;22.60;95.90
33139;DHT22;19501;50.948;5.316;2023-07-13T13:26:56;22.50;97.40
33139;DHT22;19501;50.948;5.316;2023-07-13T13:29:25;22.10;99.90
33139;DHT22;19501;50.948;5.316;2023-07-13T13:31:53;21.70;99.90
33139;DHT22;19501;50.948;5.316;2023-07-13T13:34:20;21.00;99.90
33139;DHT22;19501;50.948;5.316;2023-07-13T13:36:49;20.40;99.90
33139;DHT22;19501;50.948;5.316;2023-07-13T13:39:28;20.20;99.90
33139;DHT22;19501;50.948;5.316;2023-07-13T13:41:55;19.70;99.90
33139;DHT22;19501;50.948;5.316;2023-07-13T13:44:21;19.50;99.90
33139;DHT22;19501;50.948;5.316;2023-07-13T13:46:52;19.60;99.90
33139;DHT22;19501;50.948;5.316;2023-07-13T13:49:23;19.60;99.90
33139;DHT22;19501;50.948;5.316;2023-07-13T13:51:50;19.70;99.90
33139;DHT22;19501;50.948;5.316;2023-07-13T13:54:17;19.50;99.90
33139;DHT22;19501;50.948;5.316;2023-07-13T13:56:45;19.50;99.90
33139;DHT22;19501;50.948;5.316;2023-07-13T13:59:11;19.20;99.90
33139;DHT22;19501;50.948;5.316;2023-07-13T14:01:38;19.20;99.90
33139;DHT22;19501;50.948;5.316;2023-07-13T14:04:04;19.20;99.90
33139;DHT22;19501;50.948;5.316;2023-07-13T14:06:34;19.20;99.90
33139;DHT22;19501;50.948;5.316;2023-07-13T14:09:02;19.30;99.90
33139;DHT22;19501;50.948;5.316;2023-07-13T14:11:29;19.40;99.90
33139;DHT22;19501;50.948;5.316;2023-07-13T14:13:58;19.50;99.90
33139;DHT22;19501;50.948;5.316;2023-07-13T14:16:28;19.50;99.90
33139;DHT22;19501;50.948;5.316;2023-07-13T14:18:55;19.70;99.90
33139;DHT22;19501;50.948;5.316;2023-07-13T14:21:24;20.00;99.90
33139;DHT22;19501;50.948;5.316;2023-07-13T14:23:52;20.30;99.90
33139;DHT22;19501;50.948;5.316;2023-07-13T14:26:20;20.40;99.90
33139;DHT22;19501;50.948;5.316;2023-07-13T14:28:48;20.50;99.90
33139;DHT22;19501;50.948;5.316;2023-07-13T14:31:15;20.60;99.90
33139;DHT22;19501;50.948;5.316;2023-07-13T14:33:41;20.60;99.90
33139;DHT22;19501;50.948;5.316;2023-07-13T14:36:38;20.70;99.90
33139;DHT22;19501;50.948;5.316;2023-07-13T14:39:23;20.90;99.90
33139;DHT22;19501;50.948;5.316;2023-07-13T14:41:54;20.80;99.90
33139;DHT22;19501;50.948;5.316;2023-07-13T14:44:24;20.70;99.90
33139;DHT22;19501;50.948;5.316;2023-07-13T14:46:51;20.80;99.90
33139;DHT22;19501;50.948;5.316;2023-07-13T14:49:33;20.80;99.90
33139;DHT22;19501;50.948;5.316;2023-07-13T14:52:02;20.80;99.90
33139;DHT22;19501;50.948;5.316;2023-07-13T14:54:29;21.20;99.90
33139;DHT22;19501;50.948;5.316;2023-07-13T14:56:55;21.50;99.90
33139;DHT22;19501;50.948;5.316;2023-07-13T14:59:20;22.00;99.90
33139;DHT22;19501;50.948;5.316;2023-07-13T15:01:47;22.30;99.90
33139;DHT22;19501;50.948;5.316;2023-07-13T15:04:14;22.90;99.90
33139;DHT22;19501;50.948;5.316;2023-07-13T15:07:01;23.10;99.90
33139;DHT22;19501;50.948;5.316;2023-07-13T15:09:28;23.10;99.90
33139;DHT22;19501;50.948;5.316;2023-07-13T15:11:58;23.60;99.90
33139;DHT22;19501;50.948;5.316;2023-07-13T15:14:24;24.10;99.90
33139;DHT22;19501;50.948;5.316;2023-07-13T15:16:53;24.40;99.90
33139;DHT22;19501;50.948;5.316;2023-07-13T15:19:20;24.30;99.90
33139;DHT22;19501;50.948;5.316;2023-07-13T15:21:49;24.60;99.90
33139;DHT22;19501;50.948;5.316;2023-07-13T15:24:17;24.90;98.50
33139;DHT22;19501;50.948;5.316;2023-07-13T15:26:43;24.80;98.30
33139;DHT22;19501;50.948;5.316;2023-07-13T15:29:14;24.60;99.00
33139;DHT22;19501;50.948;5.316;2023-07-13T15:31:40;24.60;99.50
33139;DHT22;19501;50.948;5.316;2023-07-13T15:34:14;24.90;98.70
33139;DHT22;19501;50.948;5.316;2023-07-13T15:36:41;24.70;98.70
33139;DHT22;19501;50.948;5.316;2023-07-13T15:39:13;24.80;99.00
33139;DHT22;19501;50.948;5.316;2023-07-13T15:41:41;24.50;98.70
33139;DHT22;19501;50.948;5.316;2023-07-13T15:46:49;25.10;98.10
33139;DHT22;19501;50.948;5.316;2023-07-13T15:49:18;24.80;97.70
33139;DHT22;19501;50.948;5.316;2023-07-13T15:51:43;25.00;97.50
33139;DHT22;19501;50.948;5.316;2023-07-13T15:54:12;24.80;97.20
33139;DHT22;19501;50.948;5.316;2023-07-13T15:56:39;24.90;97.50
33139;DHT22;19501;50.948;5.316;2023-07-13T15:59:09;24.90;96.60
33139;DHT22;19501;50.948;5.316;2023-07-13T16:01:38;24.70;96.40
33139;DHT22;19501;50.948;5.316;2023-07-13T16:04:04;24.40;96.40
33139;DHT22;19501;50.948;5.316;2023-07-13T16:06:36;24.30;96.30
33139;DHT22;19501;50.948;5.316;2023-07-13T16:09:03;24.10;96.80
33139;DHT22;19501;50.948;5.316;2023-07-13T16:11:35;24.10;95.60
33139;DHT22;19501;50.948;5.316;2023-07-13T16:14:02;23.80;96.20
33139;DHT22;19501;50.948;5.316;2023-07-13T16:16:30;24.00;96.00
33139;DHT22;19501;50.948;5.316;2023-07-13T16:18:58;23.50;95.90